Estación Meteorológica Peña el Pijo (Robertgarden) [ 07/23/19 12:59:06 CEST ]

Fecha Hora Presion(HPa) Temp (°C) Humedad % Rocio (°C) Viento ( m/s) Direccion Lluvia 1Hora(mm) Lluvia 24H(mm) LLuvia Total(mm)
2019-Jan-02 01:01:49 1018.000 -1.9 62 -8.2         161.09
2019-Jan-02 02:06:37 1018.100 -2.4 63 -8.5         161.09
2019-Jan-02 03:04:09 1018.000 -2.7 66 -8.2         161.09
2019-Jan-02 04:01:40 1017.400 -3.1 67 -8.4         161.09
2019-Jan-02 05:01:47 1016.500 -3.1 69 -8.0         161.09
2019-Jan-02 06:01:45 1016.000 -1.1 71 -5.7         161.09
2019-Jan-02 07:01:52 1015.600 -0.6 68 -5.8         161.09
2019-Jan-02 08:01:54 1015.600 -1.6 70 -6.3         161.09
2019-Jan-02 09:01:44 1016.000 -2.1 71 -6.6         161.09
2019-Jan-02 10:02:00 1016.200 3.4 73 -1.0         161.09
2019-Jan-02 11:01:47 1015.700 13.0 36 -1.9         161.09
2019-Jan-02 12:01:54 1015.100 15.6 27 -3.5         161.09
2019-Jan-02 13:01:49 1014.400 15.9 24 -4.9 1.2 WNW     161.09
2019-Jan-02 14:01:51 1013.400 17.6 21 -5.1         161.09
2019-Jan-02 15:01:58 1012.900 18.2 22 -4.0         161.09
2019-Jan-02 16:02:10 1013.100 17.2 21 -5.4         161.09
2019-Jan-02 17:01:51 1013.200 13.6 24 -6.8         161.09
2019-Jan-02 18:01:43 1013.600 9.4 33 -6.2         161.09
2019-Jan-02 19:01:43 1014.300 5.8 40 -6.8         161.09
2019-Jan-02 20:01:36 1014.800 3.4 45 -7.5         161.09
2019-Jan-02 21:01:46 1015.000 0.8 51 -8.2         161.09
2019-Jan-02 22:01:52 1015.300 -0.8 57 -8.3         161.09
2019-Jan-02 23:01:43 1015.100 -1.2 60 -8.0         161.09

Temperatura Máxima:18°    Temperatura Mínima:-3°
Presión Máxima:1018.100 Hpa    Presión Mínima:1012.900 Hpa


Volver